Time;durP1;ratioP1;P1;durP2;ratioP2;P2;SDS_P1;SDS_P2;PMS_P1;PMS_P2;Temp;Humidity;BMP_temperature;BMP_pressure;BME280_temperature;BME280_humidity;BME280_pressure;Samples;Min_cycle;Max_cycle;Signal;HPM_P1;HPM_P2
2023/06/25 00:00:53;;;;;;;;;;;19.90;80.60;;;;;;5017118;28;19917;-84
2023/06/25 00:03:19;;;;;;;;;;;19.90;80.40;;;;;;5023005;28;20019;-85
2023/06/25 00:05:44;;;;;;;;;;;19.90;80.20;;;;;;5020793;28;19915;-84
2023/06/25 00:08:10;;;;;;;;;;;19.80;80.40;;;;;;5021734;28;20339;-84
2023/06/25 00:10:36;;;;;;;;;;;19.70;80.80;;;;;;5019611;28;20047;-85
2023/06/25 00:13:01;;;;;;;;;;;19.70;81.10;;;;;;5022030;28;20374;-85
2023/06/25 00:15:27;;;;;;;;;;;19.60;80.80;;;;;;5022723;28;20299;-85
2023/06/25 00:17:53;;;;;;;;;;;19.70;80.70;;;;;;5018482;28;20406;-84
2023/06/25 00:20:18;;;;;;;;;;;19.70;80.70;;;;;;5018962;28;19999;-86
2023/06/25 00:22:44;;;;;;;;;;;19.60;81.30;;;;;;5021312;28;19916;-86
2023/06/25 00:25:15;;;;;;;;;;;19.50;82.00;;;;;;5011004;28;19909;-84
2023/06/25 00:27:41;;;;;;;;;;;19.40;82.40;;;;;;5017531;28;19913;-84
2023/06/25 00:30:07;;;;;;;;;;;19.30;82.70;;;;;;5013089;28;19959;-85
2023/06/25 00:32:33;;;;;;;;;;;19.30;83.40;;;;;;5019973;28;19913;-84
2023/06/25 00:34:59;;;;;;;;;;;19.20;83.80;;;;;;5018053;28;19913;-83
2023/06/25 00:37:24;;;;;;;;;;;19.20;84.10;;;;;;5019908;28;19960;-85
2023/06/25 00:39:51;;;;;;;;;;;19.20;84.30;;;;;;5002576;28;19960;-85
2023/06/25 00:42:16;;;;;;;;;;;19.20;84.40;;;;;;5019504;28;19909;-84
2023/06/25 00:44:42;;;;;;;;;;;19.20;84.60;;;;;;5014711;28;19967;-85
2023/06/25 00:47:12;;;;;;;;;;;19.10;85.50;;;;;;5016786;28;19916;-86
2023/06/25 00:49:46;;;;;;;;;;;19.10;85.70;;;;;;5023738;28;20481;-84
2023/06/25 00:52:13;;;;;;;;;;;19.00;86.40;;;;;;5046069;28;19927;-86
2023/06/25 00:54:39;;;;;;;;;;;19.00;86.20;;;;;;5045299;28;20391;-85
2023/06/25 00:57:06;;;;;;;;;;;18.90;87.20;;;;;;5045356;28;20079;-86
2023/06/25 00:59:32;;;;;;;;;;;18.70;87.60;;;;;;5050850;28;20017;-85
2023/06/25 01:02:01;;;;;;;;;;;18.80;87.70;;;;;;5055672;28;19915;-86
2023/06/25 01:04:28;;;;;;;;;;;18.80;87.70;;;;;;5059391;28;19908;-87
2023/06/25 01:06:55;;;;;;;;;;;18.80;87.30;;;;;;5046559;28;20002;-85
2023/06/25 01:09:22;;;;;;;;;;;18.80;87.30;;;;;;5042015;28;20386;-86
2023/06/25 01:11:58;;;;;;;;;;;18.80;87.50;;;;;;5053971;28;19991;-86
2023/06/25 01:14:27;;;;;;;;;;;18.60;88.50;;;;;;5044354;28;20078;-86
2023/06/25 01:16:53;;;;;;;;;;;18.50;88.60;;;;;;5046261;28;19920;-86
2023/06/25 01:19:19;;;;;;;;;;;18.50;89.00;;;;;;5055120;28;19908;-86
2023/06/25 01:21:45;;;;;;;;;;;18.40;89.70;;;;;;5049485;28;19909;-86
2023/06/25 01:24:11;;;;;;;;;;;18.40;90.00;;;;;;5047980;28;19912;-86
2023/06/25 01:26:36;;;;;;;;;;;18.40;89.30;;;;;;5049717;28;20469;-86
2023/06/25 01:29:02;;;;;;;;;;;18.30;90.00;;;;;;5044886;28;19915;-86
2023/06/25 01:31:30;;;;;;;;;;;18.20;90.20;;;;;;5049736;28;19912;-85
2023/06/25 01:33:57;;;;;;;;;;;18.30;90.00;;;;;;5045107;28;19985;-85
2023/06/25 01:36:22;;;;;;;;;;;18.30;90.20;;;;;;5044451;28;19916;-85
2023/06/25 01:38:48;;;;;;;;;;;18.20;90.30;;;;;;5044829;28;19936;-83
2023/06/25 01:41:13;;;;;;;;;;;18.10;90.60;;;;;;5044578;28;19920;-84
2023/06/25 01:43:39;;;;;;;;;;;18.00;90.80;;;;;;5042525;28;19959;-84
2023/06/25 01:46:04;;;;;;;;;;;18.10;90.80;;;;;;5025359;28;19923;-84
2023/06/25 01:48:30;;;;;;;;;;;18.00;90.80;;;;;;5037260;28;20651;-84
2023/06/25 01:50:56;;;;;;;;;;;18.00;90.80;;;;;;5018769;28;19920;-86
2023/06/25 01:53:22;;;;;;;;;;;18.00;90.60;;;;;;5019933;28;20020;-86
2023/06/25 01:55:47;;;;;;;;;;;18.10;90.40;;;;;;5019769;28;19989;-86
2023/06/25 01:58:13;;;;;;;;;;;18.00;90.60;;;;;;5023212;28;20661;-83
2023/06/25 02:00:40;;;;;;;;;;;18.00;90.40;;;;;;5014704;28;20396;-86
2023/06/25 02:03:06;;;;;;;;;;;18.00;90.30;;;;;;5016508;28;20403;-85
2023/06/25 02:05:31;;;;;;;;;;;18.00;90.40;;;;;;5021917;28;19913;-85
2023/06/25 02:07:57;;;;;;;;;;;18.00;90.40;;;;;;5023388;28;19913;-84
2023/06/25 02:10:23;;;;;;;;;;;17.90;90.70;;;;;;5023557;28;19925;-84
2023/06/25 02:12:48;;;;;;;;;;;17.80;91.00;;;;;;5023137;28;19924;-84
2023/06/25 02:15:14;;;;;;;;;;;17.80;90.90;;;;;;5023857;28;19983;-84
2023/06/25 02:17:39;;;;;;;;;;;17.80;90.90;;;;;;5029528;28;19920;-84
2023/06/25 02:20:06;;;;;;;;;;;17.80;90.70;;;;;;5023695;28;19913;-83
2023/06/25 02:22:31;;;;;;;;;;;17.70;90.70;;;;;;5023709;28;20019;-84
2023/06/25 02:24:57;;;;;;;;;;;17.60;91.10;;;;;;5023435;28;19917;-83
2023/06/25 02:27:22;;;;;;;;;;;17.60;91.10;;;;;;5023438;28;19952;-84
2023/06/25 02:29:48;;;;;;;;;;;17.60;91.10;;;;;;5021971;28;19914;-84
2023/06/25 02:32:13;;;;;;;;;;;17.60;91.10;;;;;;5018983;28;19913;-84
2023/06/25 02:34:39;;;;;;;;;;;17.60;91.00;;;;;;5023289;28;19960;-83
2023/06/25 02:37:12;;;;;;;;;;;17.60;90.90;;;;;;5019418;28;19967;-84
2023/06/25 02:39:37;;;;;;;;;;;17.60;91.00;;;;;;5020939;28;20008;-84
2023/06/25 02:42:03;;;;;;;;;;;17.60;90.90;;;;;;5023596;28;19967;-84
2023/06/25 02:44:28;;;;;;;;;;;17.60;90.70;;;;;;5023380;28;19975;-85
2023/06/25 02:46:54;;;;;;;;;;;17.60;90.70;;;;;;5006204;28;19956;-85
2023/06/25 02:49:19;;;;;;;;;;;17.50;90.80;;;;;;5018473;28;20720;-85
2023/06/25 02:51:45;;;;;;;;;;;17.40;91.40;;;;;;5042936;28;19975;-85
2023/06/25 02:54:11;;;;;;;;;;;17.40;91.30;;;;;;5043991;28;19994;-86
2023/06/25 02:56:36;;;;;;;;;;;17.30;91.40;;;;;;5041814;28;19935;-86
2023/06/25 02:59:02;;;;;;;;;;;17.30;91.50;;;;;;5042473;28;19999;-86
2023/06/25 03:01:28;;;;;;;;;;;17.30;91.50;;;;;;5032677;28;19954;-86
2023/06/25 03:03:54;;;;;;;;;;;17.20;91.70;;;;;;5039525;28;19966;-85
2023/06/25 03:06:19;;;;;;;;;;;17.20;91.70;;;;;;5042678;28;19909;-85
2023/06/25 03:08:45;;;;;;;;;;;17.30;91.60;;;;;;5049564;28;20705;-85
2023/06/25 03:11:10;;;;;;;;;;;17.20;91.80;;;;;;5041083;28;20015;-85
2023/06/25 03:13:36;;;;;;;;;;;17.10;91.90;;;;;;5044639;28;20027;-85
2023/06/25 03:16:01;;;;;;;;;;;17.10;91.90;;;;;;5040493;28;20361;-86
2023/06/25 03:18:27;;;;;;;;;;;17.10;92.00;;;;;;5038912;28;19915;-83
2023/06/25 03:20:53;;;;;;;;;;;17.20;91.70;;;;;;5033844;28;19936;-83
2023/06/25 03:23:18;;;;;;;;;;;17.20;91.60;;;;;;5041279;28;19915;-84
2023/06/25 03:25:44;;;;;;;;;;;17.20;91.40;;;;;;5039083;28;19908;-84
2023/06/25 03:28:09;;;;;;;;;;;17.20;91.50;;;;;;5037158;28;19912;-84
2023/06/25 03:30:35;;;;;;;;;;;17.20;91.50;;;;;;5036096;28;19916;-85
2023/06/25 03:33:00;;;;;;;;;;;17.20;91.40;;;;;;5041509;28;20745;-85
2023/06/25 03:35:26;;;;;;;;;;;17.30;91.20;;;;;;5031034;28;19913;-85
2023/06/25 03:37:51;;;;;;;;;;;17.20;91.20;;;;;;5031684;28;19961;-85
2023/06/25 03:40:18;;;;;;;;;;;17.10;91.30;;;;;;5029565;28;19905;-82
2023/06/25 03:42:43;;;;;;;;;;;17.10;91.50;;;;;;5035096;28;19919;-77
2023/06/25 03:45:09;;;;;;;;;;;17.10;91.50;;;;;;5034636;28;19909;-80
2023/06/25 03:47:34;;;;;;;;;;;17.10;91.40;;;;;;5040731;28;19908;-80
2023/06/25 03:50:00;;;;;;;;;;;17.10;91.60;;;;;;5021525;28;19979;-81
2023/06/25 03:52:26;;;;;;;;;;;17.00;91.70;;;;;;5022760;28;19924;-80
2023/06/25 03:54:51;;;;;;;;;;;17.00;91.70;;;;;;5022156;28;19921;-81
2023/06/25 03:57:17;;;;;;;;;;;17.00;91.60;;;;;;5022147;28;19975;-80
2023/06/25 03:59:42;;;;;;;;;;;17.10;91.30;;;;;;5019110;28;20027;-80
2023/06/25 04:02:08;;;;;;;;;;;17.10;91.50;;;;;;5020983;28;20012;-79
2023/06/25 04:04:33;;;;;;;;;;;16.90;91.90;;;;;;5021750;28;19971;-79
2023/06/25 04:06:59;;;;;;;;;;;17.00;91.70;;;;;;5018949;28;19913;-81
2023/06/25 04:09:24;;;;;;;;;;;16.90;91.80;;;;;;5021689;28;19913;-81
2023/06/25 04:11:50;;;;;;;;;;;17.00;91.60;;;;;;5022282;28;20447;-81
2023/06/25 04:14:15;;;;;;;;;;;16.90;91.70;;;;;;5013261;28;19917;-80
2023/06/25 04:16:41;;;;;;;;;;;16.90;91.60;;;;;;5023034;28;19924;-79
2023/06/25 04:19:08;;;;;;;;;;;17.00;91.50;;;;;;5018260;28;20384;-80
2023/06/25 04:21:35;;;;;;;;;;;17.00;91.50;;;;;;5022384;28;19909;-79
2023/06/25 04:24:00;;;;;;;;;;;17.40;90.70;;;;;;5018198;28;19909;-80
2023/06/25 04:26:26;;;;;;;;;;;17.70;90.20;;;;;;5016728;28;19916;-80
2023/06/25 04:28:51;;;;;;;;;;;17.80;90.10;;;;;;5015906;28;20439;-79
2023/06/25 04:31:17;;;;;;;;;;;18.00;89.10;;;;;;5014999;28;19909;-80
2023/06/25 04:33:43;;;;;;;;;;;18.10;89.40;;;;;;5009747;28;19920;-81
2023/06/25 04:36:11;;;;;;;;;;;18.20;88.20;;;;;;5021352;28;19912;-79
2023/06/25 04:38:37;;;;;;;;;;;18.70;86.20;;;;;;5016295;28;20410;-80
2023/06/25 04:41:03;;;;;;;;;;;18.50;86.60;;;;;;5023734;28;19908;-80
2023/06/25 04:43:28;;;;;;;;;;;18.90;85.10;;;;;;5008637;28;19909;-80
2023/06/25 04:45:54;;;;;;;;;;;19.20;84.10;;;;;;5020492;28;20014;-81
2023/06/25 04:48:19;;;;;;;;;;;19.10;85.10;;;;;;5015543;28;20418;-81
2023/06/25 04:50:45;;;;;;;;;;;19.10;84.70;;;;;;5023130;28;20360;-82
2023/06/25 04:53:11;;;;;;;;;;;19.20;83.80;;;;;;5021385;28;19947;-82
2023/06/25 04:55:36;;;;;;;;;;;19.20;84.30;;;;;;5021781;28;19920;-81
2023/06/25 04:58:02;;;;;;;;;;;19.40;84.40;;;;;;5020001;28;19963;-80
2023/06/25 05:00:28;;;;;;;;;;;19.80;82.80;;;;;;5021396;28;20410;-81
2023/06/25 05:02:53;;;;;;;;;;;19.80;81.80;;;;;;5021273;28;19909;-82
2023/06/25 05:05:19;;;;;;;;;;;20.20;81.10;;;;;;5021577;28;19916;-80
2023/06/25 05:07:44;;;;;;;;;;;20.60;79.20;;;;;;5021953;28;19912;-81
2023/06/25 05:10:10;;;;;;;;;;;20.70;79.40;;;;;;5021610;28;19913;-80
2023/06/25 05:12:36;;;;;;;;;;;20.20;81.60;;;;;;5022141;28;19919;-84
2023/06/25 05:15:02;;;;;;;;;;;20.00;83.60;;;;;;5021349;28;20528;-84
2023/06/25 05:17:27;;;;;;;;;;;21.70;78.80;;;;;;5020467;28;19913;-84
2023/06/25 05:19:53;;;;;;;;;;;22.30;76.80;;;;;;5014727;28;20454;-83
2023/06/25 05:22:18;;;;;;;;;;;22.10;77.20;;;;;;5021590;28;19909;-84
2023/06/25 05:24:44;;;;;;;;;;;22.60;75.40;;;;;;5021356;28;20652;-84
2023/06/25 05:27:09;;;;;;;;;;;23.00;71.60;;;;;;5014505;28;19916;-83
2023/06/25 05:29:35;;;;;;;;;;;23.50;70.70;;;;;;5003008;28;20325;-83
2023/06/25 05:32:01;;;;;;;;;;;23.90;68.90;;;;;;5021199;28;20291;-85
2023/06/25 05:34:26;;;;;;;;;;;24.20;68.90;;;;;;5019053;28;19960;-83
2023/06/25 05:36:52;;;;;;;;;;;24.70;67.10;;;;;;5024647;28;20637;-83
2023/06/25 05:39:17;;;;;;;;;;;25.60;65.50;;;;;;5000982;28;19967;-83
2023/06/25 05:41:43;;;;;;;;;;;25.90;63.30;;;;;;5024990;28;20438;-82
2023/06/25 05:44:09;;;;;;;;;;;25.70;63.30;;;;;;5024576;28;20545;-82
2023/06/25 05:46:34;;;;;;;;;;;25.80;61.90;;;;;;5006365;28;19996;-83
2023/06/25 05:49:00;;;;;;;;;;;25.00;61.70;;;;;;5024102;28;19927;-82
2023/06/25 05:51:26;;;;;;;;;;;24.80;63.60;;;;;;5024195;28;19959;-82
2023/06/25 05:53:54;;;;;;;;;;;24.60;63.70;;;;;;5010239;28;19956;-82
2023/06/25 05:56:19;;;;;;;;;;;26.10;60.50;;;;;;5022189;28;19920;-83
2023/06/25 05:58:45;;;;;;;;;;;27.00;60.00;;;;;;5023996;28;20047;-81
2023/06/25 06:01:10;;;;;;;;;;;27.10;59.40;;;;;;5024859;28;19924;-82
2023/06/25 06:03:36;;;;;;;;;;;27.70;57.30;;;;;;5024519;28;19923;-83
2023/06/25 06:06:01;;;;;;;;;;;28.20;58.60;;;;;;5021900;28;19917;-82
2023/06/25 06:08:27;;;;;;;;;;;28.30;58.80;;;;;;5022795;28;19917;-82
2023/06/25 06:10:54;;;;;;;;;;;28.50;55.10;;;;;;5024363;28;19921;-83
2023/06/25 06:13:19;;;;;;;;;;;28.40;55.40;;;;;;5023655;28;20380;-83
2023/06/25 06:15:45;;;;;;;;;;;28.40;55.50;;;;;;5023568;28;19917;-83
2023/06/25 06:18:11;;;;;;;;;;;28.50;55.00;;;;;;5024507;28;19921;-83
2023/06/25 06:20:36;;;;;;;;;;;29.10;54.50;;;;;;5024401;28;19909;-83
2023/06/25 06:23:03;;;;;;;;;;;29.40;53.40;;;;;;5024971;28;19913;-83
2023/06/25 06:25:28;;;;;;;;;;;28.50;53.00;;;;;;5024201;28;19909;-83
2023/06/25 06:27:54;;;;;;;;;;;28.70;55.40;;;;;;5024163;28;20261;-83
2023/06/25 06:30:23;;;;;;;;;;;29.80;52.60;;;;;;5024626;28;19999;-84
2023/06/25 06:32:49;;;;;;;;;;;30.30;51.80;;;;;;5024326;28;19908;-83
2023/06/25 06:35:14;;;;;;;;;;;31.00;51.00;;;;;;5024166;28;19917;-83
2023/06/25 06:37:40;;;;;;;;;;;31.00;49.60;;;;;;5024580;28;19967;-84
2023/06/25 06:40:06;;;;;;;;;;;30.60;49.40;;;;;;5023860;28;20710;-83
2023/06/25 06:42:34;;;;;;;;;;;31.00;50.00;;;;;;5024081;28;19913;-83
2023/06/25 06:44:59;;;;;;;;;;;31.50;49.30;;;;;;5022760;28;19908;-83
2023/06/25 06:47:25;;;;;;;;;;;31.90;48.70;;;;;;5024261;28;19920;-84
2023/06/25 06:49:51;;;;;;;;;;;31.70;48.50;;;;;;5041896;28;19924;-83
2023/06/25 06:52:16;;;;;;;;;;;32.20;47.90;;;;;;5044636;28;20646;-85
2023/06/25 06:54:42;;;;;;;;;;;31.70;48.00;;;;;;5037632;28;20476;-85
2023/06/25 06:57:07;;;;;;;;;;;32.50;47.00;;;;;;5043697;28;19913;-84
2023/06/25 06:59:33;;;;;;;;;;;32.60;46.60;;;;;;5042683;28;19909;-84
2023/06/25 07:01:58;;;;;;;;;;;32.80;47.00;;;;;;5015003;28;19916;-84
2023/06/25 07:04:24;;;;;;;;;;;33.60;45.30;;;;;;5043628;28;19936;-83
2023/06/25 07:06:50;;;;;;;;;;;34.10;45.80;;;;;;5043694;28;19919;-84
2023/06/25 07:09:21;;;;;;;;;;;34.00;44.30;;;;;;5043866;28;19913;-85
2023/06/25 07:11:47;;;;;;;;;;;34.30;42.90;;;;;;5044627;28;19928;-84
2023/06/25 07:14:12;;;;;;;;;;;34.60;43.80;;;;;;5043862;28;19913;-84
2023/06/25 07:16:38;;;;;;;;;;;35.30;43.30;;;;;;5039891;28;19916;-84
2023/06/25 07:19:04;;;;;;;;;;;35.80;44.70;;;;;;5043795;28;20729;-84
2023/06/25 07:21:29;;;;;;;;;;;35.60;43.90;;;;;;5042865;28;20434;-84
2023/06/25 07:23:55;;;;;;;;;;;35.40;43.50;;;;;;5042101;28;19943;-84
2023/06/25 07:26:20;;;;;;;;;;;35.70;45.30;;;;;;5043675;28;19919;-85
2023/06/25 07:28:46;;;;;;;;;;;35.60;43.50;;;;;;5043174;28;19942;-87
2023/06/25 07:31:12;;;;;;;;;;;36.10;43.50;;;;;;5040507;28;19913;-84
2023/06/25 07:33:37;;;;;;;;;;;36.90;41.80;;;;;;5043101;28;19913;-82
2023/06/25 07:36:03;;;;;;;;;;;36.20;43.60;;;;;;5043026;28;19919;-85
2023/06/25 07:38:29;;;;;;;;;;;36.40;41.40;;;;;;5042859;28;19920;-85
2023/06/25 07:40:54;;;;;;;;;;;36.30;41.70;;;;;;5042555;28;19908;-87
2023/06/25 07:43:20;;;;;;;;;;;37.00;43.00;;;;;;5042603;28;20375;-86
2023/06/25 07:45:45;;;;;;;;;;;37.10;41.30;;;;;;5041985;28;19909;-80
2023/06/25 07:48:11;;;;;;;;;;;37.70;40.30;;;;;;5037828;28;19921;-80
2023/06/25 07:50:36;;;;;;;;;;;38.30;40.50;;;;;;5022473;28;19909;-80
2023/06/25 07:53:02;;;;;;;;;;;38.00;41.30;;;;;;5021203;28;19913;-80
2023/06/25 07:55:28;;;;;;;;;;;38.00;41.40;;;;;;5021201;28;19928;-80
2023/06/25 07:57:53;;;;;;;;;;;38.80;41.30;;;;;;5020244;28;19951;-80
2023/06/25 08:00:19;;;;;;;;;;;38.80;39.90;;;;;;5021640;28;19909;-80
2023/06/25 08:02:44;;;;;;;;;;;38.80;40.30;;;;;;5014617;28;20702;-80
2023/06/25 08:05:10;;;;;;;;;;;39.10;39.80;;;;;;5020098;28;19920;-82
2023/06/25 08:07:36;;;;;;;;;;;38.90;39.90;;;;;;5023443;28;19913;-80
2023/06/25 08:10:02;;;;;;;;;;;39.00;38.70;;;;;;5022425;28;20016;-81
2023/06/25 08:12:28;;;;;;;;;;;39.80;38.80;;;;;;5018896;28;19909;-80
2023/06/25 08:14:53;;;;;;;;;;;40.00;39.70;;;;;;5017966;28;20004;-80
2023/06/25 08:17:19;;;;;;;;;;;40.20;38.00;;;;;;5017977;28;19909;-81
2023/06/25 08:19:44;;;;;;;;;;;40.40;38.80;;;;;;5018347;28;19992;-81
2023/06/25 08:22:10;;;;;;;;;;;40.30;38.00;;;;;;5018142;28;19948;-81
2023/06/25 08:24:35;;;;;;;;;;;40.40;38.20;;;;;;5022763;28;20520;-78
2023/06/25 08:27:01;;;;;;;;;;;40.90;38.20;;;;;;5016275;28;19919;-79
2023/06/25 08:29:26;;;;;;;;;;;41.40;37.30;;;;;;5016402;28;19917;-78
2023/06/25 08:31:52;;;;;;;;;;;40.80;38.60;;;;;;5015796;28;20038;-78
2023/06/25 08:34:18;;;;;;;;;;;41.50;37.60;;;;;;5013982;28;19924;-78
2023/06/25 08:36:43;;;;;;;;;;;42.20;36.20;;;;;;4999968;28;19909;-78
2023/06/25 08:39:09;;;;;;;;;;;42.80;36.00;;;;;;5012030;28;19909;-78
2023/06/25 08:41:34;;;;;;;;;;;42.60;34.90;;;;;;5022529;28;19913;-78
2023/06/25 08:44:00;;;;;;;;;;;42.80;35.30;;;;;;5021990;28;19978;-78
2023/06/25 08:46:26;;;;;;;;;;;43.20;34.40;;;;;;5011397;28;20750;-78
2023/06/25 08:48:53;;;;;;;;;;;42.90;34.00;;;;;;5020259;28;19921;-78
2023/06/25 08:51:22;;;;;;;;;;;43.30;36.20;;;;;;5021181;28;19909;-78
2023/06/25 08:53:47;;;;;;;;;;;43.60;35.20;;;;;;5021925;28;19917;-77
2023/06/25 08:56:16;;;;;;;;;;;43.40;33.40;;;;;;5020545;28;20002;-77
2023/06/25 08:58:42;;;;;;;;;;;43.10;34.10;;;;;;5020471;28;19940;-77
2023/06/25 09:01:08;;;;;;;;;;;43.10;34.00;;;;;;5020091;28;20423;-77
2023/06/25 09:03:33;;;;;;;;;;;43.60;35.10;;;;;;5021748;28;20372;-77
2023/06/25 09:05:59;;;;;;;;;;;43.90;34.10;;;;;;5019783;28;20328;-78
2023/06/25 09:08:26;;;;;;;;;;;43.20;32.50;;;;;;5020418;28;20004;-78
2023/06/25 09:10:52;;;;;;;;;;;42.20;32.80;;;;;;5016713;28;19917;-77
2023/06/25 09:13:25;;;;;;;;;;;43.00;33.90;;;;;;5017033;28;19916;-78
2023/06/25 09:15:53;;;;;;;;;;;44.00;35.40;;;;;;5019036;28;19917;-78
2023/06/25 09:18:20;;;;;;;;;;;44.70;36.20;;;;;;5025030;28;19909;-78
2023/06/25 09:20:46;;;;;;;;;;;44.50;35.00;;;;;;5017663;28;20418;-77
2023/06/25 09:23:17;;;;;;;;;;;43.90;35.30;;;;;;5025476;28;19932;-77
2023/06/25 09:25:44;;;;;;;;;;;44.40;33.60;;;;;;5017547;28;19909;-78
2023/06/25 09:28:09;;;;;;;;;;;44.30;33.80;;;;;;5023820;28;19999;-77
2023/06/25 09:30:35;;;;;;;;;;;44.50;35.80;;;;;;5019286;28;20008;-78
2023/06/25 09:33:03;;;;;;;;;;;43.50;33.50;;;;;;5021266;28;19912;-77
2023/06/25 09:35:30;;;;;;;;;;;43.60;34.20;;;;;;5025458;28;19932;-78
2023/06/25 09:37:56;;;;;;;;;;;44.30;34.00;;;;;;5001590;28;19916;-78
2023/06/25 09:40:22;;;;;;;;;;;43.90;34.90;;;;;;5021587;28;19913;-78
2023/06/25 09:42:48;;;;;;;;;;;43.60;34.00;;;;;;5024309;28;20774;-78
2023/06/25 09:45:15;;;;;;;;;;;44.50;34.00;;;;;;5022958;28;19912;-79
2023/06/25 09:47:41;;;;;;;;;;;44.70;33.60;;;;;;5024608;28;20384;-79
2023/06/25 09:50:07;;;;;;;;;;;45.00;31.40;;;;;;5024987;28;20659;-79
2023/06/25 09:52:33;;;;;;;;;;;44.70;32.00;;;;;;5025041;28;19909;-79
2023/06/25 09:55:00;;;;;;;;;;;43.40;33.20;;;;;;5024300;28;19920;-79
2023/06/25 09:57:26;;;;;;;;;;;43.00;34.40;;;;;;5021232;28;19912;-78
2023/06/25 09:59:51;;;;;;;;;;;43.50;35.70;;;;;;5021707;28;19921;-77
2023/06/25 10:02:18;;;;;;;;;;;44.60;34.10;;;;;;5008080;28;20369;-80
2023/06/25 10:04:44;;;;;;;;;;;44.60;33.90;;;;;;5024650;28;19966;-80
2023/06/25 10:07:10;;;;;;;;;;;43.60;31.10;;;;;;5021118;28;19982;-81
2023/06/25 10:09:36;;;;;;;;;;;44.10;34.00;;;;;;5016060;28;20509;-79
2023/06/25 10:12:02;;;;;;;;;;;44.70;34.70;;;;;;5002184;28;19913;-81
2023/06/25 10:14:35;;;;;;;;;;;44.80;35.90;;;;;;5024816;28;20023;-80
2023/06/25 10:17:04;;;;;;;;;;;43.50;34.00;;;;;;5020865;28;19947;-79
2023/06/25 10:19:29;;;;;;;;;;;44.90;32.60;;;;;;5019783;28;19948;-79
2023/06/25 10:22:04;;;;;;;;;;;45.20;32.50;;;;;;5005321;28;20004;-78
2023/06/25 10:24:49;;;;;;;;;;;44.70;31.30;;;;;;5023403;28;19928;-78
2023/06/25 10:27:20;;;;;;;;;;;44.20;32.30;;;;;;5021879;28;19956;-79
2023/06/25 10:29:46;;;;;;;;;;;43.80;31.60;;;;;;5022785;28;19959;-79
2023/06/25 10:32:12;;;;;;;;;;;43.50;30.00;;;;;;5022259;28;19924;-79
2023/06/25 10:34:38;;;;;;;;;;;43.10;33.60;;;;;;5022326;28;19990;-79
2023/06/25 10:37:04;;;;;;;;;;;44.20;31.80;;;;;;5022307;28;20376;-79
2023/06/25 10:39:37;;;;;;;;;;;44.00;32.00;;;;;;5021250;28;20026;-79
2023/06/25 10:42:05;;;;;;;;;;;44.10;33.10;;;;;;5004930;28;19920;-79
2023/06/25 10:44:31;;;;;;;;;;;43.10;33.30;;;;;;5003460;28;19913;-79
2023/06/25 10:47:07;;;;;;;;;;;41.70;33.50;;;;;;5022247;28;19913;-78
2023/06/25 10:49:33;;;;;;;;;;;40.40;33.30;;;;;;5000794;28;19917;-79
2023/06/25 10:51:59;;;;;;;;;;;39.00;35.60;;;;;;5020298;28;19917;-78
2023/06/25 10:54:25;;;;;;;;;;;38.10;36.90;;;;;;5018763;28;20368;-79
2023/06/25 10:56:55;;;;;;;;;;;36.60;38.40;;;;;;5018293;28;20355;-79
2023/06/25 10:59:21;;;;;;;;;;;36.70;40.40;;;;;;5018143;28;19913;-78
2023/06/25 11:01:47;;;;;;;;;;;34.60;40.10;;;;;;5004670;28;20269;-78
2023/06/25 11:04:13;;;;;;;;;;;35.20;42.10;;;;;;5018541;28;19920;-78
2023/06/25 11:06:38;;;;;;;;;;;34.40;39.50;;;;;;5017814;28;19913;-78
2023/06/25 11:09:04;;;;;;;;;;;33.80;46.60;;;;;;5000412;28;19944;-79
2023/06/25 11:11:29;;;;;;;;;;;33.70;45.20;;;;;;5021984;28;20012;-79
2023/06/25 11:13:55;;;;;;;;;;;33.20;47.70;;;;;;5022479;28;20392;-78
2023/06/25 11:16:21;;;;;;;;;;;32.80;49.80;;;;;;5022796;28;19913;-78
2023/06/25 11:18:50;;;;;;;;;;;33.10;48.10;;;;;;5021114;28;19912;-79
2023/06/25 11:21:16;;;;;;;;;;;33.50;44.10;;;;;;5018902;28;19921;-78
2023/06/25 11:23:45;;;;;;;;;;;32.80;49.50;;;;;;5013830;28;19923;-79
2023/06/25 11:26:13;;;;;;;;;;;32.40;48.30;;;;;;5021618;28;19925;-79
2023/06/25 11:28:39;;;;;;;;;;;32.90;46.90;;;;;;5022565;28;19912;-79
2023/06/25 11:31:04;;;;;;;;;;;32.80;47.70;;;;;;5022660;28;19909;-79
2023/06/25 11:33:30;;;;;;;;;;;32.10;50.60;;;;;;5023497;28;20008;-79
2023/06/25 11:36:11;;;;;;;;;;;32.60;47.60;;;;;;5023002;28;20050;-79
2023/06/25 11:38:37;;;;;;;;;;;32.70;45.30;;;;;;5017970;28;19944;-78
2023/06/25 11:41:04;;;;;;;;;;;32.60;44.40;;;;;;5022664;28;20533;-79
2023/06/25 11:43:31;;;;;;;;;;;32.60;44.00;;;;;;5022306;28;19920;-79
2023/06/25 11:46:02;;;;;;;;;;;32.50;46.80;;;;;;5021901;28;19917;-79
2023/06/25 11:48:28;;;;;;;;;;;32.30;47.60;;;;;;5021960;28;19921;-78
2023/06/25 11:51:02;;;;;;;;;;;32.20;44.70;;;;;;5021797;28;19945;-78
2023/06/25 11:53:27;;;;;;;;;;;31.50;49.60;;;;;;5015591;28;19913;-79
2023/06/25 11:55:53;;;;;;;;;;;31.50;49.40;;;;;;5019960;28;19913;-79
2023/06/25 11:58:19;;;;;;;;;;;31.60;48.00;;;;;;5021196;28;19952;-78
2023/06/25 12:00:44;;;;;;;;;;;31.60;47.10;;;;;;5019447;28;19913;-79
2023/06/25 12:03:10;;;;;;;;;;;31.10;50.80;;;;;;5018997;28;20018;-79
2023/06/25 12:05:36;;;;;;;;;;;31.60;52.20;;;;;;5004484;28;20046;-78
2023/06/25 12:08:01;;;;;;;;;;;31.40;53.60;;;;;;5019568;28;19917;-78
2023/06/25 12:10:27;;;;;;;;;;;31.30;52.20;;;;;;5022987;28;19987;-79
2023/06/25 12:12:54;;;;;;;;;;;31.40;52.00;;;;;;5021362;28;20647;-78
2023/06/25 12:15:20;;;;;;;;;;;31.30;53.60;;;;;;5007186;28;19921;-78
2023/06/25 12:17:46;;;;;;;;;;;31.30;50.60;;;;;;5019444;28;20713;-78
2023/06/25 12:20:11;;;;;;;;;;;31.10;51.10;;;;;;5021509;28;19956;-79
2023/06/25 12:22:37;;;;;;;;;;;30.90;52.50;;;;;;5016465;28;20024;-78
2023/06/25 12:25:03;;;;;;;;;;;30.80;49.50;;;;;;5021823;28;20521;-79
2023/06/25 12:27:29;;;;;;;;;;;30.80;53.40;;;;;;5016184;28;19913;-78
2023/06/25 12:29:55;;;;;;;;;;;31.00;53.10;;;;;;4998895;28;19991;-78
2023/06/25 12:32:20;;;;;;;;;;;30.80;53.90;;;;;;5016701;28;19928;-78
2023/06/25 12:34:46;;;;;;;;;;;30.60;53.40;;;;;;5021760;28;19975;-78
2023/06/25 12:37:11;;;;;;;;;;;30.60;52.00;;;;;;5020070;28;19932;-79
2023/06/25 12:39:37;;;;;;;;;;;30.90;56.00;;;;;;5022004;28;20314;-78
2023/06/25 12:42:03;;;;;;;;;;;30.80;54.00;;;;;;5019232;28;19919;-79
2023/06/25 12:44:28;;;;;;;;;;;30.60;55.20;;;;;;5021283;28;20300;-78
2023/06/25 12:46:54;;;;;;;;;;;30.80;53.00;;;;;;5021850;28;19913;-78
2023/06/25 12:49:19;;;;;;;;;;;30.90;55.00;;;;;;5021989;28;19921;-78
2023/06/25 12:51:45;;;;;;;;;;;30.90;54.30;;;;;;5024707;28;20606;-79
2023/06/25 12:54:11;;;;;;;;;;;30.50;57.30;;;;;;5025446;28;20451;-79
2023/06/25 12:56:36;;;;;;;;;;;30.70;53.60;;;;;;5021655;28;20010;-79
2023/06/25 12:59:02;;;;;;;;;;;30.80;53.70;;;;;;5021980;28;20725;-78
2023/06/25 13:01:28;;;;;;;;;;;30.60;53.20;;;;;;5025589;28;19966;-78
2023/06/25 13:03:53;;;;;;;;;;;30.40;53.30;;;;;;5025960;28;19920;-78
2023/06/25 13:06:20;;;;;;;;;;;30.40;52.00;;;;;;5025833;28;20578;-78
2023/06/25 13:08:46;;;;;;;;;;;30.40;52.70;;;;;;5024891;28;20431;-78
2023/06/25 13:11:11;;;;;;;;;;;30.60;55.80;;;;;;5008896;28;19917;-78
2023/06/25 13:13:37;;;;;;;;;;;30.70;54.60;;;;;;5025102;28;19913;-79
2023/06/25 13:16:03;;;;;;;;;;;30.60;53.90;;;;;;5025084;28;19913;-79
2023/06/25 13:18:28;;;;;;;;;;;30.50;53.20;;;;;;5025050;28;20407;-79
2023/06/25 13:20:54;;;;;;;;;;;30.30;53.30;;;;;;5025613;28;19912;-78
2023/06/25 13:23:19;;;;;;;;;;;30.40;54.50;;;;;;5025379;28;19917;-79
2023/06/25 13:25:45;;;;;;;;;;;30.30;55.40;;;;;;5019915;28;20425;-78
2023/06/25 13:28:11;;;;;;;;;;;30.30;55.80;;;;;;5024184;28;19999;-78
2023/06/25 13:30:36;;;;;;;;;;;30.10;54.70;;;;;;5024254;28;20035;-81
2023/06/25 13:33:02;;;;;;;;;;;30.20;51.10;;;;;;5023484;28;20449;-78
2023/06/25 13:35:27;;;;;;;;;;;30.10;53.00;;;;;;5024985;28;19917;-78
2023/06/25 13:37:53;;;;;;;;;;;30.00;57.40;;;;;;5025334;28;19960;-78
2023/06/25 13:40:19;;;;;;;;;;;30.10;55.60;;;;;;5024579;28;19932;-77
2023/06/25 13:42:44;;;;;;;;;;;30.00;55.10;;;;;;5024120;28;20336;-79
2023/06/25 13:45:10;;;;;;;;;;;30.10;56.70;;;;;;5025308;28;19909;-78
2023/06/25 13:47:35;;;;;;;;;;;30.10;56.40;;;;;;5023708;28;19913;-78
2023/06/25 13:50:01;;;;;;;;;;;30.00;54.70;;;;;;5000804;28;20140;-78
2023/06/25 13:52:27;;;;;;;;;;;30.10;54.50;;;;;;5011894;28;19913;-78
2023/06/25 13:54:52;;;;;;;;;;;30.10;57.00;;;;;;5023811;28;19943;-78
2023/06/25 13:57:19;;;;;;;;;;;29.90;54.80;;;;;;5023015;28;19939;-79
2023/06/25 13:59:44;;;;;;;;;;;30.00;55.90;;;;;;5007839;28;19913;-78
2023/06/25 14:02:10;;;;;;;;;;;30.00;56.50;;;;;;5023094;28;20391;-78
2023/06/25 14:04:35;;;;;;;;;;;30.00;55.70;;;;;;5005671;28;19913;-78
2023/06/25 14:07:01;;;;;;;;;;;29.90;55.00;;;;;;5023082;28;20294;-78
2023/06/25 14:09:27;;;;;;;;;;;29.80;53.30;;;;;;5023130;28;20338;-78